首页
METAR-TAF:

METAR-TAF

机场 :

Langlade County Airport

Antigo, 威斯康辛州, 美国

纬度: 45-09-15N, 经度: 89-06-39W, 海拔: 464米

当前天气观测

该预报发布于12分钟前的10:35 UTC
风速5节,风向西北
温度 10°C
湿度 93%
气压 1006 hPa
能見度: 16.1公里
散云层高于2400英尺
散云层高于3600英尺
阴天层高于6000英尺

METAR: KAIG 281035Z AUTO 31005KT 10SM SCT024 SCT036 OVC060 10/09 A2970 RMK AO2 T00950090

时间: 05:47 (10:47 UTC)


TAF: 丢失

超过4000个机场的气象观测和天气预报(METAR&TAF报告)。

可查询的气象台以黄色和红色小点在地图上表示。

将鼠标移到小点上方,可查看气象台名称。

然后点击查看天气观测和预报。

如需切换地图:点击带黑十字的绿色按钮放大地图;点击带横线的绿色按钮缩小地图;或者点击绿色箭头查看邻近地区的地图。


METAR-TAF: